createdAt,value
2019-02-20T00:01:46.385Z,23.29
2019-02-20T00:06:54.010Z,23.79
2019-02-20T00:12:01.660Z,23.10
2019-02-20T00:17:09.318Z,26.50
2019-02-20T00:22:16.983Z,25.93
2019-02-20T00:27:24.655Z,23.37
2019-02-20T00:37:39.418Z,25.16
2019-02-20T00:42:47.044Z,21.23
2019-02-20T00:47:54.698Z,23.33
2019-02-20T00:53:02.310Z,22.22
2019-02-20T00:58:09.999Z,23.11
2019-02-20T01:03:17.608Z,25.44
2019-02-20T01:08:25.348Z,24.96
2019-02-20T01:13:33.038Z,26.47
2019-02-20T01:18:40.797Z,25.87
2019-02-20T01:23:48.426Z,25.91
2019-02-20T01:28:56.140Z,23.71
2019-02-20T01:34:03.720Z,25.13
2019-02-20T01:39:11.444Z,30.60
2019-02-20T01:44:19.070Z,24.01
2019-02-20T01:49:26.805Z,25.07
2019-02-20T01:54:34.453Z,25.51
2019-02-20T01:59:42.129Z,25.42
2019-02-20T02:04:49.926Z,27.19
2019-02-20T02:09:57.560Z,28.63
2019-02-20T02:15:05.190Z,26.53
2019-02-20T02:20:12.873Z,22.17
2019-02-20T02:25:20.481Z,23.69
2019-02-20T02:30:28.178Z,26.04
2019-02-20T02:35:35.856Z,27.25
2019-02-20T02:40:44.018Z,27.22
2019-02-20T02:45:51.648Z,25.56
2019-02-20T02:50:59.882Z,25.39
2019-02-20T02:56:07.508Z,24.96
2019-02-20T03:01:16.213Z,27.23
2019-02-20T03:06:23.858Z,24.03
2019-02-20T03:11:31.566Z,29.23
2019-02-20T03:16:39.204Z,23.34
2019-02-20T03:21:46.892Z,26.76
2019-02-20T03:26:54.555Z,24.52
2019-02-20T03:32:03.909Z,25.93
2019-02-20T03:37:11.540Z,24.97
2019-02-20T03:42:20.810Z,28.28
2019-02-20T03:47:28.462Z,29.08
2019-02-20T03:52:37.041Z,28.16
2019-02-20T03:57:44.688Z,28.46
2019-02-20T04:02:52.460Z,28.29
2019-02-20T04:08:00.128Z,30.73
2019-02-20T04:13:09.448Z,30.16
2019-02-20T04:18:17.125Z,28.98
2019-02-20T04:23:24.773Z,26.50
2019-02-20T04:28:32.439Z,30.55
2019-02-20T04:33:41.145Z,33.28
2019-02-20T04:38:48.773Z,31.57
2019-02-20T04:43:56.498Z,31.89
2019-02-20T04:49:04.108Z,27.48
2019-02-20T04:54:13.775Z,32.17
2019-02-20T04:59:18.972Z,32.53
2019-02-20T05:04:26.629Z,33.33
2019-02-20T05:09:34.254Z,29.19
2019-02-20T05:14:41.947Z,34.57
2019-02-20T05:19:49.555Z,29.55
2019-02-20T05:24:57.288Z,37.17
2019-02-20T05:30:04.941Z,38.51
2019-02-20T05:35:12.586Z,39.84
2019-02-20T05:40:20.217Z,37.95
2019-02-20T05:45:28.392Z,36.95
2019-02-20T05:50:36.014Z,38.09
2019-02-20T05:55:43.920Z,44.06
2019-02-20T06:00:51.554Z,38.92
2019-02-20T06:05:59.216Z,40.88
2019-02-20T06:11:14.381Z,47.77
2019-02-20T06:16:14.074Z,44.06
2019-02-20T06:21:21.691Z,43.22
2019-02-20T06:26:29.338Z,45.98
2019-02-20T06:31:37.009Z,48.42
2019-02-20T06:36:44.715Z,48.49
2019-02-20T06:41:52.408Z,48.01
2019-02-20T06:47:00.113Z,47.40
2019-02-20T06:52:11.327Z,51.10
2019-02-20T06:57:09.156Z,49.35
2019-02-20T07:02:16.815Z,49.42
2019-02-20T07:07:24.566Z,54.30
2019-02-20T07:12:32.191Z,49.12
2019-02-20T07:17:40.997Z,52.11
2019-02-20T07:22:48.661Z,53.70
2019-02-20T07:27:56.370Z,51.55
2019-02-20T07:33:03.992Z,49.07
2019-02-20T07:38:11.705Z,49.00
2019-02-20T07:43:19.365Z,47.79
2019-02-20T07:48:27.041Z,50.25
2019-02-20T07:53:34.648Z,49.03
2019-02-20T07:58:42.333Z,49.53
2019-02-20T08:03:52.055Z,47.68
2019-02-20T08:08:59.741Z,55.10
2019-02-20T08:14:07.370Z,46.24
2019-02-20T08:19:15.083Z,48.53
2019-02-20T08:24:22.713Z,47.63
2019-02-20T08:29:30.392Z,48.53
2019-02-20T08:34:38.006Z,51.17
2019-02-20T08:39:45.783Z,50.24
2019-02-20T08:44:56.441Z,50.25
2019-02-20T08:49:54.495Z,48.80
2019-02-20T08:55:01.318Z,52.06
2019-02-20T09:00:08.997Z,49.25
2019-02-20T09:05:16.608Z,53.55
2019-02-20T09:10:24.968Z,49.43
2019-02-20T09:15:32.625Z,50.59
2019-02-20T09:20:40.329Z,50.17
2019-02-20T09:25:48.014Z,50.25
2019-02-20T09:30:55.729Z,50.31
2019-02-20T09:36:09.741Z,49.76
2019-02-20T09:41:07.448Z,48.07
2019-02-20T09:46:15.076Z,51.26
2019-02-20T09:51:22.849Z,45.61
2019-02-20T09:56:30.491Z,45.34
2019-02-20T10:01:38.195Z,46.37
2019-02-20T10:06:45.801Z,45.88
2019-02-20T10:11:53.468Z,42.32
2019-02-20T10:17:01.088Z,42.07
2019-02-20T10:22:08.820Z,39.91
2019-02-20T10:27:16.484Z,40.63
2019-02-20T10:32:41.083Z,40.97
2019-02-20T10:37:27.761Z,36.33
2019-02-20T10:42:35.411Z,35.97
2019-02-20T10:47:43.037Z,31.29
2019-02-20T10:52:50.762Z,32.58
2019-02-20T10:57:58.364Z,32.69
2019-02-20T11:03:06.099Z,31.31
2019-02-20T11:08:13.731Z,32.60
2019-02-20T11:13:22.222Z,31.03
2019-02-20T11:18:29.852Z,32.91
2019-02-20T11:23:37.573Z,32.94
2019-02-20T11:28:45.228Z,32.47
2019-02-20T11:33:52.984Z,30.14
2019-02-20T11:39:03.653Z,31.39
2019-02-20T11:44:01.411Z,31.61
2019-02-20T11:49:09.053Z,33.21
2019-02-20T11:54:16.796Z,32.53
2019-02-20T11:59:24.456Z,31.09
2019-02-20T12:04:32.183Z,28.36
2019-02-20T12:09:39.862Z,28.86
2019-02-20T12:14:47.581Z,28.57
2019-02-20T12:19:58.529Z,27.81
2019-02-20T12:24:56.153Z,25.09
2019-02-20T12:30:03.797Z,27.58
2019-02-20T12:35:11.507Z,29.01
2019-02-20T12:40:19.158Z,24.96
2019-02-20T12:45:26.853Z,22.07
2019-02-20T12:50:37.395Z,24.41
2019-02-20T12:55:35.054Z,24.02
2019-02-20T13:00:45.760Z,23.58
2019-02-20T13:05:44.740Z,24.60
2019-02-20T13:10:52.353Z,22.50
2019-02-20T13:16:00.059Z,23.31
2019-02-20T13:21:07.693Z,22.69
2019-02-20T13:26:15.375Z,23.58
2019-02-20T13:31:22.999Z,20.32
2019-02-20T13:36:30.707Z,21.54
2019-02-20T13:41:38.370Z,21.71
2019-02-20T13:46:46.143Z,20.19
2019-02-20T13:51:53.798Z,22.58
2019-02-20T13:57:02.203Z,21.37
2019-02-20T14:02:08.681Z,20.38
2019-02-20T14:07:16.376Z,22.01
2019-02-20T14:12:38.680Z,21.58
2019-02-20T14:17:26.976Z,20.06
2019-02-20T14:22:34.919Z,19.99
2019-02-20T14:27:42.564Z,18.80
2019-02-20T14:32:50.983Z,16.88
2019-02-20T14:37:58.657Z,18.03
2019-02-20T14:43:06.325Z,17.84
2019-02-20T14:48:14.279Z,16.18
2019-02-20T14:53:21.917Z,16.66
2019-02-20T14:58:29.981Z,19.94
2019-02-20T15:03:37.622Z,16.67
2019-02-20T15:08:46.128Z,17.51
2019-02-20T15:13:55.387Z,15.57
2019-02-20T15:19:01.106Z,12.79
2019-02-20T15:24:08.743Z,11.30
2019-02-20T15:29:16.488Z,14.05
2019-02-20T15:34:24.198Z,13.22
2019-02-20T15:39:31.965Z,14.80
2019-02-20T15:44:39.604Z,14.94
2019-02-20T15:49:47.373Z,18.10
2019-02-20T15:54:55.077Z,19.33
2019-02-20T16:00:02.773Z,18.48
2019-02-20T16:05:10.407Z,20.96
2019-02-20T16:10:18.153Z,18.38
2019-02-20T16:15:25.773Z,19.92
2019-02-20T16:20:33.665Z,21.33
2019-02-20T16:25:40.269Z,17.78
2019-02-20T16:30:47.984Z,17.58
2019-02-20T16:35:55.635Z,15.82
2019-02-20T16:41:04.679Z,17.39
2019-02-20T16:46:10.511Z,14.25
2019-02-20T16:51:18.181Z,15.13
2019-02-20T16:56:31.941Z,16.09
2019-02-20T17:01:29.818Z,14.25
2019-02-20T17:06:36.833Z,17.22
2019-02-20T17:11:44.496Z,15.90
2019-02-20T17:16:52.139Z,16.28
2019-02-20T17:21:59.797Z,22.93
2019-02-20T17:27:07.406Z,18.55
2019-02-20T17:32:15.177Z,19.44
2019-02-20T17:37:22.776Z,17.15
2019-02-20T17:42:30.542Z,17.19
2019-02-20T17:47:38.158Z,16.95
2019-02-20T17:52:45.835Z,17.73
2019-02-20T17:57:53.472Z,17.06
2019-02-20T18:03:01.133Z,20.21
2019-02-20T18:08:08.764Z,19.13
2019-02-20T18:13:16.460Z,18.66
2019-02-20T18:18:24.104Z,17.96
2019-02-20T18:23:32.677Z,17.20
2019-02-20T18:28:40.314Z,16.04
2019-02-20T18:33:48.008Z,18.64
2019-02-20T18:38:55.633Z,18.46
2019-02-20T18:44:03.277Z,19.56
2019-02-20T18:49:10.890Z,18.55
2019-02-20T18:54:18.384Z,16.37
2019-02-20T18:59:26.012Z,16.99
2019-02-20T19:04:33.724Z,18.48
2019-02-20T19:09:41.377Z,19.20
2019-02-20T19:14:49.137Z,32.76
2019-02-20T19:19:56.873Z,29.20
2019-02-20T19:25:04.628Z,24.19
2019-02-20T19:30:12.317Z,24.05
2019-02-20T19:35:20.023Z,43.87
2019-02-20T19:40:27.680Z,63.33
2019-02-20T19:45:35.400Z,23.00
2019-02-20T19:50:43.105Z,22.32
2019-02-20T19:55:50.806Z,22.86
2019-02-20T20:00:58.507Z,22.20
2019-02-20T20:06:06.245Z,18.92
2019-02-20T20:11:13.916Z,22.11
2019-02-20T20:16:21.656Z,18.53
2019-02-20T20:21:29.384Z,20.39
2019-02-20T20:26:37.858Z,18.71
2019-02-20T20:31:45.555Z,19.47
2019-02-20T20:36:53.267Z,16.31
2019-02-20T20:42:00.862Z,20.07
2019-02-20T20:47:08.621Z,21.63
2019-02-20T20:52:16.260Z,19.77
2019-02-20T20:57:23.933Z,19.90
2019-02-20T21:02:31.556Z,19.65
2019-02-20T21:07:39.303Z,21.20
2019-02-20T21:12:47.602Z,21.14
2019-02-20T21:17:58.798Z,21.20
2019-02-20T21:22:56.429Z,21.86
2019-02-20T21:28:04.677Z,26.96
2019-02-20T21:33:12.313Z,25.73
2019-02-20T21:38:20.095Z,25.55
2019-02-20T21:43:27.712Z,28.06
2019-02-20T21:48:35.533Z,27.45
2019-02-20T21:53:43.149Z,26.02
2019-02-20T21:58:50.921Z,24.01
2019-02-20T22:03:58.588Z,25.94
2019-02-20T22:09:06.324Z,23.84
2019-02-20T22:14:14.009Z,23.99
2019-02-20T22:19:23.725Z,27.91
2019-02-20T22:24:31.445Z,32.49
2019-02-20T22:29:49.521Z,33.93
2019-02-20T22:34:46.378Z,48.63
2019-02-20T22:39:54.024Z,40.12
2019-02-20T22:45:01.940Z,35.14
2019-02-20T22:50:09.587Z,37.52
2019-02-20T22:55:17.521Z,30.80
2019-02-20T23:00:34.386Z,37.43
2019-02-20T23:05:32.443Z,38.23
2019-02-20T23:10:40.144Z,35.93
2019-02-20T23:15:47.857Z,32.75
2019-02-20T23:20:55.500Z,35.67
2019-02-20T23:26:03.206Z,38.06
2019-02-20T23:31:10.869Z,38.58
2019-02-20T23:36:18.698Z,36.75
2019-02-20T23:41:26.353Z,37.64
2019-02-20T23:46:41.037Z,37.66
2019-02-20T23:51:38.652Z,37.68
2019-02-20T23:56:46.306Z,40.34
